Time;durP1;ratioP1;P1;durP2;ratioP2;P2;SDS_P1;SDS_P2;PMS_P1;PMS_P2;Temp;Humidity;BMP_temperature;BMP_pressure;BME280_temperature;BME280_humidity;BME280_pressure;Samples;Min_cycle;Max_cycle;Signal;HPM_P1;HPM_P2
2022/03/23 00:01:25;;;;;;;15.67;10.23;;;3.10;45.70;;;1.85;56.91;99264.03;5036082;28;21012;-70
2022/03/23 00:03:52;;;;;;;15.03;9.73;;;3.20;45.40;;;1.96;56.75;99253.31;5035572;28;20860;-71
2022/03/23 00:06:19;;;;;;;12.70;9.93;;;3.30;45.50;;;1.84;57.18;99255.22;5035943;28;20460;-72
2022/03/23 00:08:47;;;;;;;11.77;9.50;;;3.30;45.40;;;1.69;57.37;99257.34;5035814;28;20505;-71
2022/03/23 00:11:14;;;;;;;17.43;9.43;;;3.20;45.50;;;1.59;57.83;99256.41;5035406;28;20442;-71
2022/03/23 00:13:41;;;;;;;12.53;10.23;;;3.00;45.70;;;1.67;57.87;99258.47;5036931;28;20609;-71
2022/03/23 00:16:08;;;;;;;10.70;9.20;;;3.00;46.00;;;1.70;57.72;99248.38;5036335;28;20486;-69
2022/03/23 00:18:35;;;;;;;15.17;10.57;;;3.10;46.10;;;1.70;57.46;99247.53;5052119;28;20532;-69
2022/03/23 00:21:02;;;;;;;14.57;9.93;;;3.10;45.90;;;1.59;57.89;99255.56;5035113;28;20976;-70
2022/03/23 00:23:29;;;;;;;11.77;9.07;;;3.00;45.90;;;1.59;58.04;99251.06;5036621;28;20976;-71
2022/03/23 00:25:59;;;;;;;15.03;10.30;;;3.00;46.10;;;1.54;58.15;99247.94;5035270;28;20790;-69
2022/03/23 00:28:26;;;;;;;17.77;10.60;;;2.90;46.20;;;1.62;58.07;99250.84;5036774;28;20484;-69
2022/03/23 00:30:54;;;;;;;11.30;9.20;;;3.00;46.20;;;1.60;57.81;99252.78;5036639;28;20879;-70
2022/03/23 00:33:22;;;;;;;13.90;9.93;;;3.00;46.20;;;1.50;58.37;99251.84;5037858;28;20571;-69
2022/03/23 00:35:49;;;;;;;11.63;9.20;;;2.90;46.50;;;1.39;58.69;99250.91;5039578;28;20449;-70
2022/03/23 00:38:17;;;;;;;12.37;10.00;;;2.80;46.30;;;1.38;58.54;99248.38;5037170;28;20451;-69
2022/03/23 00:40:44;;;;;;;12.77;10.40;;;2.80;46.40;;;1.47;57.96;99252.94;5036157;28;20440;-72
2022/03/23 00:43:13;;;;;;;16.63;11.20;;;2.80;46.40;;;1.40;58.01;99249.94;5034781;28;20964;-70
2022/03/23 00:45:41;;;;;;;15.47;9.97;;;2.80;46.30;;;1.44;58.69;99253.19;5034534;28;20503;-69
2022/03/23 00:48:08;;;;;;;13.47;9.80;;;2.90;46.50;;;1.38;58.84;99248.38;5036079;28;20984;-70
2022/03/23 00:50:35;;;;;;;13.10;10.57;;;2.90;46.50;;;1.34;58.77;99252.25;5035614;28;20450;-70
2022/03/23 00:53:02;;;;;;;14.40;10.20;;;2.80;46.60;;;1.34;58.99;99253.13;5034756;28;20444;-70
2022/03/23 00:55:29;;;;;;;13.47;9.50;;;2.80;46.80;;;1.27;59.40;99254.56;5036322;28;20939;-71
2022/03/23 00:57:56;;;;;;;10.90;9.40;;;2.70;46.90;;;1.25;59.41;99257.38;5034243;28;20873;-70
2022/03/23 01:00:24;;;;;;;13.00;9.40;;;2.70;46.90;;;1.20;59.96;99261.38;5035997;28;20533;-70
2022/03/23 01:02:51;;;;;;;14.37;9.87;;;2.70;47.10;;;1.11;59.80;99255.81;5035987;28;20547;-69
2022/03/23 01:05:19;;;;;;;13.47;10.10;;;2.60;47.20;;;1.00;60.59;99250.53;5036592;28;20460;-69
2022/03/23 01:07:47;;;;;;;18.37;10.00;;;2.50;47.30;;;0.93;60.59;99250.19;5035687;28;20434;-69
2022/03/23 01:10:16;;;;;;;12.93;10.23;;;2.40;47.60;;;0.89;61.08;99253.22;5035371;28;20445;-71
2022/03/23 01:12:45;;;;;;;12.10;10.13;;;2.40;47.70;;;0.80;61.01;99258.28;5034320;28;20780;-69
2022/03/23 01:15:16;;;;;;;15.40;9.97;;;2.30;47.70;;;0.84;60.85;99253.56;5035545;28;20540;-69
2022/03/23 01:17:44;;;;;;;13.07;9.73;;;2.30;47.90;;;0.87;61.29;99255.97;5035510;28;20474;-69
2022/03/23 01:20:15;;;;;;;13.93;11.17;;;2.30;47.90;;;0.82;61.49;99264.31;5035440;28;20765;-70
2022/03/23 01:22:44;;;;;;;14.83;10.70;;;2.30;48.00;;;0.75;61.14;99255.16;5033748;28;20549;-71
2022/03/23 01:25:13;;;;;;;14.93;10.60;;;2.30;48.00;;;0.79;61.19;99264.56;5035547;28;20445;-70
2022/03/23 01:27:42;;;;;;;14.10;10.70;;;2.30;48.10;;;0.63;61.58;99250.81;5035287;28;20448;-69
2022/03/23 01:30:13;;;;;;;15.33;11.23;;;2.20;48.10;;;0.62;61.65;99265.06;5035285;28;20524;-70
2022/03/23 01:32:41;;;;;;;17.70;11.00;;;2.10;48.20;;;0.62;61.79;99262.41;5035335;28;20447;-70
2022/03/23 01:35:11;;;;;;;15.13;10.80;;;2.10;48.40;;;0.59;61.50;99252.84;5034575;28;20521;-70
2022/03/23 01:37:39;;;;;;;13.97;9.93;;;2.10;48.50;;;0.63;61.35;99258.78;5034604;28;20481;-70
2022/03/23 01:40:09;;;;;;;12.50;9.80;;;2.00;48.40;;;0.61;61.56;99255.41;5033995;28;20441;-70
2022/03/23 01:42:36;;;;;;;16.93;10.30;;;2.00;48.30;;;0.61;61.70;99260.72;5034655;28;20465;-70
2022/03/23 01:45:04;;;;;;;14.47;10.20;;;2.00;48.40;;;0.60;61.43;99259.03;5034686;28;20539;-70
2022/03/23 01:47:32;;;;;;;13.97;9.60;;;2.10;48.50;;;0.60;61.62;99243.06;5033610;28;20437;-70
2022/03/23 01:49:59;;;;;;;16.83;11.70;;;2.00;48.40;;;0.56;61.74;99253.09;5034297;28;20540;-70
2022/03/23 01:52:31;;;;;;;14.90;10.43;;;2.10;48.80;;;0.53;61.45;99245.38;5033813;28;20503;-69
2022/03/23 01:54:58;;;;;;;17.97;11.70;;;2.00;48.60;;;0.50;61.89;99256.25;5049810;28;20457;-69
2022/03/23 01:57:25;;;;;;;18.00;10.60;;;2.00;48.70;;;0.46;61.79;99252.16;5034922;28;20542;-70
2022/03/23 01:59:52;;;;;;;20.33;11.87;;;1.90;48.70;;;0.40;62.35;99243.66;5034725;28;20427;-70
2022/03/23 02:02:20;;;;;;;17.67;10.47;;;1.90;48.90;;;0.22;63.14;99253.91;5034658;28;20473;-70
2022/03/23 02:04:47;;;;;;;17.03;11.30;;;1.70;49.00;;;0.26;63.48;99260.72;5034644;28;20480;-71
2022/03/23 02:07:15;;;;;;;17.10;10.90;;;1.70;49.40;;;0.12;63.37;99255.59;5032933;28;20524;-70
2022/03/23 02:09:43;;;;;;;18.47;11.00;;;1.60;49.40;;;0.18;63.60;99255.13;5033846;28;20452;-70
2022/03/23 02:12:11;;;;;;;17.07;11.00;;;1.50;49.80;;;0.35;62.76;99258.28;5034959;28;20510;-70
2022/03/23 02:14:38;;;;;;;16.03;10.83;;;1.70;49.80;;;0.44;62.31;99254.91;5034641;28;20932;-70
2022/03/23 02:17:06;;;;;;;16.03;11.40;;;1.80;49.50;;;0.33;63.25;99252.25;5033209;28;20456;-70
2022/03/23 02:19:35;;;;;;;14.83;10.73;;;1.80;49.40;;;0.21;63.05;99254.88;5032581;28;20438;-70
2022/03/23 02:22:04;;;;;;;12.87;10.70;;;1.70;49.50;;;0.01;64.06;99251.13;5033539;28;20520;-69
2022/03/23 02:24:33;;;;;;;19.00;11.10;;;1.60;49.80;;;0.03;63.81;99251.00;5034428;28;20520;-70
2022/03/23 02:27:01;;;;;;;14.50;10.13;;;1.40;50.10;;;-0.16;64.39;99257.72;5034088;28;20440;-70
2022/03/23 02:29:31;;;;;;;15.93;10.37;;;1.30;50.30;;;-0.30;65.21;99245.47;5034607;28;20446;-70
2022/03/23 02:32:01;;;;;;;17.17;11.77;;;1.20;50.60;;;-0.26;65.12;99246.06;5034478;28;20437;-69
2022/03/23 02:34:28;;;;;;;16.40;9.67;;;1.20;50.90;;;-0.04;64.27;99246.16;5034312;28;20549;-69
2022/03/23 02:36:57;;;;;;;18.60;10.97;;;1.30;50.80;;;0.11;63.36;99251.25;5032738;28;20856;-70
2022/03/23 02:39:25;;;;;;;19.70;11.60;;;1.40;50.50;;;0.16;63.33;99256.22;5033865;28;20480;-71
2022/03/23 02:41:53;;;;;;;23.40;11.67;;;1.60;50.30;;;0.03;63.13;99256.31;5034104;28;20560;-70
2022/03/23 02:44:21;;;;;;;23.30;11.27;;;1.60;50.10;;;-0.03;64.09;99253.16;5033946;28;20500;-71
2022/03/23 02:46:48;;;;;;;16.33;10.70;;;1.50;50.20;;;-0.14;64.19;99250.47;5033755;28;20529;-70
2022/03/23 02:49:16;;;;;;;17.47;11.50;;;1.40;50.20;;;-0.07;63.78;99248.19;5033709;28;20924;-69
2022/03/23 02:51:44;;;;;;;18.90;11.40;;;1.40;50.40;;;0.03;63.73;99253.66;5033789;28;20545;-70
2022/03/23 03:02:42;;;;;;;16.03;10.17;;;1.40;51.30;;;-0.30;66.34;99254.28;5033930;28;20506;-71
2022/03/23 03:05:11;;;;;;;15.40;10.20;;;1.20;51.70;;;-0.30;66.11;99253.44;5031963;28;21173;-71
2022/03/23 03:10:26;;;;;;;14.93;9.70;;;1.10;52.30;;;-0.30;66.40;99251.63;5033700;28;20440;-70
2022/03/23 03:12:55;;;;;;;14.87;10.17;;;1.10;52.70;;;-0.16;65.81;99255.06;5032519;28;20446;-69
2022/03/23 03:15:23;;;;;;;11.80;10.40;;;1.20;52.50;;;-0.14;65.88;99250.47;5033422;28;20460;-69
2022/03/23 03:17:50;;;;;;;12.33;10.03;;;1.30;52.30;;;-0.26;66.30;99256.69;5032586;28;20442;-69
2022/03/23 03:20:18;;;;;;;13.73;9.07;;;1.30;52.20;;;-0.20;65.86;99250.94;5033120;28;20437;-70
2022/03/23 03:22:46;;;;;;;11.50;8.50;;;1.30;52.20;;;-0.39;66.06;99244.34;5033294;28;20552;-70
2022/03/23 03:25:16;;;;;;;16.50;10.50;;;1.20;52.20;;;-0.50;66.27;99252.28;5032843;28;20447;-70
2022/03/23 03:27:45;;;;;;;14.30;10.63;;;1.00;52.50;;;-0.62;66.57;99244.25;5033555;28;20441;-70
2022/03/23 03:30:17;;;;;;;15.50;9.50;;;0.90;53.00;;;-0.47;66.38;99228.16;5033734;28;20456;-70
2022/03/23 03:32:45;;;;;;;11.83;9.50;;;1.00;53.10;;;-0.31;65.76;99251.72;5032071;28;20453;-69
2022/03/23 03:35:13;;;;;;;14.30;10.27;;;1.10;52.80;;;-0.48;66.77;99245.03;5033118;28;20444;-70
2022/03/23 03:37:41;;;;;;;17.43;9.93;;;1.00;52.90;;;-0.63;67.20;99242.56;5033043;28;20516;-70
2022/03/23 03:40:10;;;;;;;14.10;9.50;;;0.90;53.20;;;-0.64;67.12;99243.53;5032403;28;20473;-70
2022/03/23 03:42:37;;;;;;;19.43;11.30;;;0.80;53.60;;;-0.67;67.44;99241.09;5031405;28;20464;-70
2022/03/23 03:45:06;;;;;;;16.00;9.47;;;0.80;53.80;;;-0.70;67.22;99243.97;5033346;28;20472;-70
2022/03/23 03:47:35;;;;;;;15.53;10.93;;;0.80;53.90;;;-0.61;67.21;99242.44;5033047;28;20941;-70
2022/03/23 03:50:02;;;;;;;18.73;11.80;;;0.80;54.10;;;-0.71;67.75;99239.63;5033045;28;20446;-71
2022/03/23 03:52:29;;;;;;;16.30;11.17;;;0.70;54.10;;;-0.58;67.00;99243.06;5031451;28;20878;-71
2022/03/23 03:54:56;;;;;;;14.03;9.90;;;0.80;54.40;;;-0.50;67.45;99249.63;5031762;28;20433;-70
2022/03/23 03:57:23;;;;;;;15.20;10.40;;;0.90;54.30;;;-0.57;67.37;99250.06;5033086;28;20422;-70
2022/03/23 03:59:50;;;;;;;13.60;9.80;;;0.90;54.10;;;-0.76;67.88;99245.28;5031340;28;20883;-70
2022/03/23 04:02:18;;;;;;;13.77;10.77;;;0.80;54.40;;;-0.94;68.22;99260.75;5031815;28;20897;-70
2022/03/23 04:04:47;;;;;;;15.53;11.37;;;0.70;54.80;;;-0.99;69.09;99246.94;5048004;28;20446;-71
2022/03/23 04:07:16;;;;;;;13.00;10.23;;;0.50;55.40;;;-0.76;68.18;99260.34;5048457;28;20455;-71
2022/03/23 04:09:43;;;;;;;10.63;9.03;;;0.60;55.50;;;-0.79;67.65;99250.78;5031471;28;20468;-71
2022/03/23 04:12:10;;;;;;;13.97;10.47;;;0.70;55.30;;;-0.75;67.89;99267.34;5032983;28;20499;-71
2022/03/23 04:14:37;;;;;;;16.30;10.93;;;0.70;55.40;;;-0.71;68.53;99258.19;5032881;28;20533;-69
2022/03/23 04:17:06;;;;;;;15.20;10.67;;;0.70;55.90;;;-0.72;68.03;99246.75;5032236;28;20445;-70
2022/03/23 04:19:33;;;;;;;14.20;10.60;;;0.80;55.30;;;-0.78;67.96;99256.97;5036492;28;20441;-70
2022/03/23 04:22:02;;;;;;;19.00;11.47;;;0.80;55.20;;;-0.73;67.94;99265.44;5036579;28;20534;-70
2022/03/23 04:24:28;;;;;;;17.90;12.13;;;0.80;55.40;;;-0.83;68.49;99259.09;5038947;28;20964;-70
2022/03/23 04:26:55;;;;;;;16.17;11.27;;;0.80;55.90;;;-0.92;69.33;99261.47;5032969;28;20524;-70
2022/03/23 04:29:24;;;;;;;13.53;10.60;;;0.70;55.90;;;-1.15;69.71;99257.81;5032972;28;20439;-70
2022/03/23 04:31:51;;;;;;;12.93;10.30;;;0.50;56.10;;;-1.14;69.87;99262.16;5030973;28;20532;-70
2022/03/23 04:34:18;;;;;;;12.27;9.77;;;0.40;56.70;;;-1.10;69.70;99270.75;5031180;28;20440;-70
2022/03/23 04:36:45;;;;;;;16.40;10.93;;;0.40;56.70;;;-1.27;70.10;99277.25;5032073;28;20520;-71
2022/03/23 04:39:13;;;;;;;17.50;10.90;;;0.30;57.00;;;-1.27;70.08;99275.47;5030996;28;20525;-70
2022/03/23 04:41:40;;;;;;;15.83;10.13;;;0.20;57.20;;;-1.35;69.77;99283.09;5032733;28;20476;-70
2022/03/23 04:44:07;;;;;;;17.80;10.23;;;0.10;57.40;;;-1.29;69.94;99282.66;5033984;28;20469;-69
2022/03/23 04:46:34;;;;;;;14.17;10.93;;;0.20;57.50;;;-1.08;68.78;99276.81;5034449;28;20852;-69
2022/03/23 04:49:02;;;;;;;12.33;10.27;;;0.30;57.20;;;-1.01;68.48;99272.75;5035986;28;20531;-70
2022/03/23 04:51:30;;;;;;;12.97;10.63;;;0.40;56.90;;;-1.03;68.67;99285.28;5036101;28;20440;-70
2022/03/23 04:53:57;;;;;;;11.53;10.40;;;0.50;56.80;;;-1.02;68.63;99290.47;5036051;28;20536;-70
2022/03/23 04:56:26;;;;;;;11.37;9.70;;;0.50;56.60;;;-1.11;68.43;99291.13;5036220;28;20528;-69
2022/03/23 04:58:54;;;;;;;14.90;10.57;;;0.50;56.70;;;-1.25;69.47;99291.25;5034543;28;20431;-70
2022/03/23 05:01:21;;;;;;;13.93;10.53;;;0.30;56.80;;;-1.47;70.05;99285.66;5051425;28;20875;-70
2022/03/23 05:03:49;;;;;;;17.00;11.57;;;0.10;57.60;;;-1.60;71.05;99298.06;5034696;28;20520;-70
2022/03/23 05:06:15;;;;;;;12.90;10.77;;;0.00;58.40;;;-1.66;71.06;99290.56;5034912;28;20483;-70
2022/03/23 05:08:42;;;;;;;15.40;11.03;;;-0.10;58.90;;;-1.69;71.46;99288.94;5035369;28;20540;-70
2022/03/23 05:11:10;;;;;;;11.43;10.20;;;-0.20;59.30;;;-1.52;70.81;99286.94;5035797;28;20576;-71
2022/03/23 05:13:38;;;;;;;15.47;10.17;;;-0.10;59.40;;;-1.56;71.08;99291.63;5035695;28;20490;-71
2022/03/23 05:16:07;;;;;;;12.90;10.53;;;-0.10;59.40;;;-1.64;71.40;99301.88;5050450;28;20457;-72
2022/03/23 05:18:34;;;;;;;16.50;11.90;;;-0.10;59.70;;;-1.74;71.85;99297.25;5035403;28;20435;-72
2022/03/23 05:21:01;;;;;;;24.57;15.50;;;-0.20;60.30;;;-1.75;72.31;99297.34;5035538;28;20531;-72
2022/03/23 05:23:28;;;;;;;30.07;18.03;;;-0.20;61.20;;;-1.76;73.04;99299.13;5035428;28;20467;-71
2022/03/23 05:25:55;;;;;;;27.60;17.07;;;-0.20;61.90;;;-1.72;72.67;99295.34;5035143;28;20445;-71
2022/03/23 05:28:22;;;;;;;29.70;16.80;;;-0.20;62.60;;;-1.66;72.39;99295.84;5035430;28;20443;-71
2022/03/23 05:30:50;;;;;;;24.57;16.30;;;-0.20;62.50;;;-1.74;72.51;99307.84;5034282;28;20445;-70
2022/03/23 05:33:17;;;;;;;25.87;16.90;;;-0.20;62.50;;;-1.64;72.57;99301.88;5035419;28;20442;-71
2022/03/23 05:35:44;;;;;;;28.70;17.30;;;-0.10;62.80;;;-1.55;71.84;99305.69;5035085;28;20975;-70
2022/03/23 05:38:11;;;;;;;22.83;15.00;;;0.00;63.00;;;-1.68;72.64;99298.59;5035380;28;20547;-72
2022/03/23 05:40:39;;;;;;;24.23;16.13;;;-0.10;63.20;;;-1.57;72.63;99305.81;5037858;28;20436;-73
2022/03/23 05:43:08;;;;;;;25.67;17.00;;;0.00;63.80;;;-1.24;71.59;99308.88;5041722;28;20471;-72
2022/03/23 05:45:36;;;;;;;37.43;17.53;;;0.20;62.90;;;-1.26;70.62;99281.59;5051654;28;20879;-81
2022/03/23 05:48:05;;;;;;;27.90;18.60;;;0.30;62.40;;;-1.14;70.58;99299.31;5035745;28;20508;-71
2022/03/23 05:50:34;;;;;;;26.53;18.60;;;0.40;61.90;;;-1.11;70.47;99293.78;5034868;28;20469;-75
2022/03/23 05:53:01;;;;;;;25.10;16.97;;;0.40;62.20;;;-1.11;70.79;99316.81;5033211;28;20448;-71
2022/03/23 05:55:27;;;;;;;29.40;17.63;;;0.40;61.80;;;-1.20;71.68;99313.00;5033871;28;20518;-71
2022/03/23 05:57:55;;;;;;;23.03;16.10;;;0.40;62.40;;;-1.20;71.47;99315.66;5033986;28;20832;-71
2022/03/23 06:00:22;;;;;;;22.27;16.10;;;0.40;62.50;;;-1.19;71.90;99307.59;5033392;28;20765;-70
2022/03/23 06:02:49;;;;;;;22.50;15.80;;;0.40;62.70;;;-1.06;71.21;99304.06;5033302;28;20474;-73
2022/03/23 06:05:18;;;;;;;18.63;13.13;;;0.50;62.50;;;-1.11;70.06;99272.56;5033747;28;20455;-71
2022/03/23 06:07:45;;;;;;;21.97;13.37;;;0.60;62.00;;;-0.75;70.03;99308.03;5034318;28;20472;-71
2022/03/23 06:10:12;;;;;;;24.60;16.07;;;0.70;61.80;;;-0.75;69.58;99315.13;5032670;28;20468;-69
2022/03/23 06:12:39;;;;;;;24.00;16.80;;;0.80;61.30;;;-0.65;69.64;99299.38;5032950;28;20447;-69
2022/03/23 06:15:10;;;;;;;20.97;15.60;;;0.90;61.30;;;-0.60;69.23;99311.34;5032695;28;20782;-71
2022/03/23 06:17:38;;;;;;;21.47;15.70;;;0.90;61.00;;;-0.54;69.49;99319.81;5034466;28;20443;-70
2022/03/23 06:20:07;;;;;;;21.67;15.83;;;1.00;60.90;;;-0.37;68.59;99318.59;5034245;28;20463;-70
2022/03/23 06:22:35;;;;;;;23.83;16.43;;;1.10;60.60;;;-0.36;69.09;99315.84;5034414;28;20769;-70
2022/03/23 06:25:02;;;;;;;26.40;16.87;;;1.20;60.50;;;-0.27;68.77;99321.41;5032921;28;20468;-70
2022/03/23 06:27:29;;;;;;;18.97;15.50;;;1.20;60.20;;;-0.29;68.57;99327.69;5033748;28;20484;-69
2022/03/23 06:29:56;;;;;;;19.13;13.77;;;1.20;60.10;;;-0.32;68.93;99305.81;5032548;28;20529;-69
2022/03/23 06:32:23;;;;;;;21.53;15.17;;;1.30;60.30;;;-0.19;68.76;99319.88;5034171;28;20476;-70
2022/03/23 06:34:50;;;;;;;19.80;13.73;;;1.30;60.20;;;-0.02;67.53;99328.41;5033934;28;20551;-71
2022/03/23 06:37:17;;;;;;;16.63;13.70;;;1.50;59.80;;;0.14;67.30;99331.59;5032866;28;20532;-70
2022/03/23 06:39:45;;;;;;;19.60;15.40;;;1.60;59.50;;;0.22;66.72;99328.34;5034095;28;20527;-71
2022/03/23 06:42:12;;;;;;;19.37;15.70;;;1.70;59.10;;;0.38;66.27;99341.34;5033545;28;20533;-70
2022/03/23 06:44:40;;;;;;;29.93;14.90;;;1.80;58.70;;;0.47;67.09;99342.44;5032381;28;20544;-70
2022/03/23 06:47:07;;;;;;;22.43;15.00;;;1.90;58.90;;;0.75;67.05;99334.97;5033774;28;20437;-67
2022/03/23 06:49:34;;;;;;;20.70;14.50;;;2.10;60.10;;;0.83;64.96;99345.88;5032305;28;20438;-66
2022/03/23 06:52:01;;;;;;;20.43;14.50;;;2.30;58.20;;;0.91;64.65;99341.75;5033379;28;20555;-67
2022/03/23 06:54:28;;;;;;;30.77;14.87;;;2.40;57.70;;;0.93;64.72;99343.34;5033606;28;20513;-66
2022/03/23 06:56:56;;;;;;;21.47;14.10;;;2.40;57.40;;;0.98;64.95;99346.47;5033171;28;20860;-68
2022/03/23 06:59:23;;;;;;;19.40;14.33;;;2.40;57.40;;;1.16;64.48;99345.16;5011377;28;20524;-66
2022/03/23 07:01:50;;;;;;;24.53;16.20;;;2.60;57.30;;;1.30;64.35;99344.88;5028909;28;20470;-67
2022/03/23 07:04:17;;;;;;;17.57;14.73;;;2.70;57.00;;;1.52;63.47;99341.34;5010418;28;20953;-67
2022/03/23 07:06:44;;;;;;;20.07;14.97;;;2.90;56.70;;;1.66;62.66;99342.84;5009269;28;20466;-67
2022/03/23 07:11:57;;;;;;;17.83;14.30;;;3.20;55.80;;;1.96;61.91;99335.97;5013854;28;20470;-66
2022/03/23 07:14:24;;;;;;;24.17;15.60;;;3.30;55.70;;;2.06;61.17;99343.22;5012168;28;20451;-66
2022/03/23 07:16:51;;;;;;;25.37;14.13;;;3.50;55.10;;;2.20;61.10;99337.56;5013877;28;20446;-68
2022/03/23 07:19:18;;;;;;;23.30;13.87;;;3.60;55.10;;;2.22;60.42;99338.28;5011690;28;20524;-71
2022/03/23 07:21:45;;;;;;;20.23;14.57;;;3.60;54.30;;;2.32;60.44;99337.47;5013010;28;20541;-72
2022/03/23 07:24:12;;;;;;;19.63;15.10;;;3.70;54.40;;;2.45;60.34;99340.81;5012139;28;20466;-73
2022/03/23 07:26:39;;;;;;;17.17;13.73;;;3.80;54.30;;;2.85;58.70;99352.53;5012200;28;20430;-69
2022/03/23 07:29:08;;;;;;;17.07;12.73;;;4.10;53.80;;;2.85;58.12;99344.53;5011956;28;20471;-70
2022/03/23 07:31:35;;;;;;;15.83;12.60;;;4.20;52.90;;;3.08;57.17;99345.19;5013504;28;20462;-70
2022/03/23 07:34:03;;;;;;;24.40;13.20;;;4.30;52.60;;;3.16;56.56;99344.53;5013175;28;20526;-70
2022/03/23 07:36:30;;;;;;;16.67;12.77;;;4.50;52.00;;;3.20;56.57;99343.28;5013253;28;20481;-70
2022/03/23 07:38:57;;;;;;;17.23;12.73;;;4.60;51.60;;;3.38;55.29;99345.31;5013133;28;20444;-71
2022/03/23 07:41:24;;;;;;;16.40;13.03;;;4.70;51.00;;;3.39;55.52;99342.47;5013596;28;20450;-71
2022/03/23 07:43:52;;;;;;;16.60;13.00;;;4.80;50.70;;;3.44;55.17;99343.91;5012202;28;20475;-72
2022/03/23 07:46:20;;;;;;;15.40;13.00;;;4.80;50.20;;;3.48;55.11;99345.31;5012674;28;20756;-71
2022/03/23 07:48:47;;;;;;;17.73;14.23;;;4.90;50.10;;;3.95;54.35;99347.38;5012086;28;20533;-66
2022/03/23 07:51:14;;;;;;;16.20;12.80;;;5.10;50.00;;;3.87;53.91;99350.75;5013130;28;20211;-67
2022/03/23 07:53:41;;;;;;;15.30;13.00;;;5.20;50.10;;;3.99;53.55;99348.78;5013375;28;20450;-65
2022/03/23 07:56:08;;;;;;;17.20;12.30;;;5.30;49.60;;;4.04;52.37;99346.50;5012107;28;20437;-66
2022/03/23 07:58:35;;;;;;;15.07;12.40;;;5.40;48.50;;;4.09;53.12;99338.06;5011568;28;20524;-67
2022/03/23 08:01:02;;;;;;;17.10;12.70;;;5.40;48.40;;;4.25;51.94;99338.34;5012820;28;21051;-66
2022/03/23 08:03:31;;;;;;;15.43;13.63;;;5.60;48.20;;;4.50;51.70;99341.41;5011563;28;20495;-68
2022/03/23 08:05:57;;;;;;;14.70;12.33;;;5.70;47.80;;;4.42;51.69;99308.34;5012634;28;20538;-67
2022/03/23 08:08:24;;;;;;;15.00;12.50;;;5.80;47.60;;;4.72;51.49;99335.88;5011200;28;20537;-67
2022/03/23 08:10:52;;;;;;;15.73;13.00;;;6.00;47.60;;;5.06;49.71;99341.50;5012345;28;20478;-67
2022/03/23 08:13:19;;;;;;;15.10;12.67;;;6.20;47.10;;;5.19;48.54;99340.34;5034925;28;20455;-74
2022/03/23 08:15:46;;;;;;;15.47;12.40;;;6.40;46.20;;;5.09;49.22;99340.38;5034451;28;20505;-72
2022/03/23 08:18:17;;;;;;;14.73;12.40;;;6.40;45.90;;;5.09;48.47;99327.84;5014049;28;20435;-72
2022/03/23 08:20:45;;;;;;;18.83;12.40;;;6.50;45.90;;;5.49;47.86;99338.34;5032556;28;20439;-71
2022/03/23 08:23:15;;;;;;;18.93;13.13;;;6.70;45.70;;;5.24;48.23;99305.94;5015665;28;20492;-73
2022/03/23 08:25:43;;;;;;;17.20;13.27;;;6.80;45.80;;;5.59;47.59;99331.09;5016644;28;20513;-72
2022/03/23 08:28:14;;;;;;;15.17;12.33;;;6.90;45.20;;;5.68;46.96;99340.91;5016697;28;20450;-72
2022/03/23 08:30:43;;;;;;;16.90;12.80;;;7.00;44.90;;;5.90;46.20;99343.28;5016101;28;20535;-73
2022/03/23 08:33:10;;;;;;;14.77;12.43;;;7.10;44.60;;;5.94;46.93;99344.69;5014819;28;20446;-71
2022/03/23 08:35:37;;;;;;;17.70;13.50;;;7.20;44.60;;;6.14;45.93;99334.69;5015103;28;20466;-72
2022/03/23 08:38:07;;;;;;;18.37;12.93;;;7.30;44.30;;;6.24;45.47;99338.13;5014662;28;20451;-72
2022/03/23 08:40:34;;;;;;;16.17;14.17;;;7.40;44.20;;;6.35;45.64;99325.44;5014460;28;20498;-71
2022/03/23 08:43:03;;;;;;;19.00;13.00;;;7.60;44.00;;;6.75;45.16;99332.13;5016219;28;20512;-72
2022/03/23 08:45:30;;;;;;;17.23;13.83;;;7.80;44.00;;;6.92;44.15;99332.22;5014859;28;20783;-74
2022/03/23 08:47:57;;;;;;;17.90;13.47;;;8.00;43.60;;;6.88;44.24;99323.63;5014826;28;20440;-73
2022/03/23 08:50:25;;;;;;;15.47;13.30;;;8.10;43.40;;;6.84;43.51;99298.09;5014887;28;20538;-71
2022/03/23 08:52:53;;;;;;;17.13;13.90;;;8.30;43.30;;;7.11;43.37;99323.03;5014512;28;20535;-72
2022/03/23 08:55:23;;;;;;;18.80;13.80;;;8.30;43.00;;;7.31;42.79;99331.69;5014403;28;20927;-71
2022/03/23 08:57:50;;;;;;;17.00;13.93;;;8.50;42.80;;;7.44;42.17;99338.47;5030448;28;20435;-70
2022/03/23 09:00:18;;;;;;;14.43;12.87;;;8.60;42.00;;;7.53;42.17;99337.50;5014239;28;20718;-70
2022/03/23 09:02:45;;;;;;;17.70;14.30;;;8.70;42.00;;;7.90;40.56;99313.88;5014714;28;20550;-71
2022/03/23 09:05:14;;;;;;;14.67;12.43;;;9.00;41.30;;;8.13;40.24;99322.16;5015897;28;20575;-70
2022/03/23 09:07:42;;;;;;;14.67;13.17;;;9.20;40.90;;;8.22;40.12;99326.50;5014508;28;20423;-71
2022/03/23 09:10:13;;;;;;;15.93;13.43;;;9.30;40.70;;;8.21;39.84;99330.22;5015094;28;20443;-71
2022/03/23 09:12:41;;;;;;;14.97;13.20;;;9.40;40.60;;;8.43;39.29;99325.16;5015178;28;20441;-72
2022/03/23 09:15:11;;;;;;;17.80;14.03;;;9.50;40.30;;;8.55;39.33;99327.53;5014413;28;20451;-72
2022/03/23 09:17:38;;;;;;;16.93;13.20;;;9.70;40.10;;;8.58;38.77;99328.03;5014416;28;20475;-71
2022/03/23 09:20:07;;;;;;;20.33;14.40;;;9.70;39.60;;;8.68;38.32;99327.84;5015610;28;20522;-72
2022/03/23 09:22:35;;;;;;;17.00;13.93;;;9.80;39.50;;;8.85;38.31;99328.66;5015693;28;20444;-71
2022/03/23 09:25:10;;;;;;;15.40;13.70;;;9.90;39.40;;;8.96;37.54;99330.16;5030849;28;20473;-72
2022/03/23 09:27:39;;;;;;;14.77;13.27;;;10.00;38.30;;;9.38;36.98;99328.13;5030999;28;20500;-71
2022/03/23 09:30:11;;;;;;;18.77;14.23;;;10.30;38.70;;;9.61;36.23;99324.66;5014732;28;20453;-70
2022/03/23 09:32:38;;;;;;;15.03;13.10;;;10.60;37.80;;;9.56;35.67;99319.78;5016150;28;20531;-70
2022/03/23 09:35:07;;;;;;;21.17;14.50;;;10.60;37.40;;;9.30;35.46;99299.34;5014224;28;20447;-72
2022/03/23 09:37:49;;;;;;;15.73;14.13;;;10.70;36.80;;;9.44;35.56;99305.88;5014572;28;20489;-71
2022/03/23 09:40:23;;;;;;;17.13;13.07;;;10.70;36.60;;;9.80;34.91;99317.13;5015618;28;20188;-71
2022/03/23 09:42:50;;;;;;;15.90;14.20;;;10.80;36.70;;;10.07;33.90;99311.19;5014270;28;20447;-71
2022/03/23 09:45:35;;;;;;;15.40;12.80;;;11.00;36.20;;;10.03;34.45;99309.03;5014945;28;20471;-71
2022/03/23 09:48:05;;;;;;;14.93;13.43;;;11.10;36.10;;;10.09;34.59;99300.22;5015599;28;20444;-72
2022/03/23 09:50:34;;;;;;;12.83;11.50;;;11.20;36.20;;;10.38;34.04;99298.63;5015123;28;20447;-70
2022/03/23 09:53:02;;;;;;;14.80;12.83;;;11.40;36.10;;;10.47;34.41;99311.06;5015307;28;20464;-71
2022/03/23 09:55:29;;;;;;;15.97;13.80;;;11.50;36.00;;;10.38;33.58;99295.09;5014777;28;20457;-72
2022/03/23 09:57:58;;;;;;;15.43;13.80;;;11.60;35.40;;;10.37;33.44;99299.63;5014951;28;20977;-73
2022/03/23 10:00:27;;;;;;;18.97;13.00;;;11.60;35.20;;;10.52;33.27;99297.00;5013193;28;20483;-71
2022/03/23 10:03:55;;;;;;;14.83;13.30;;;11.60;35.40;;;10.80;33.42;99303.66;5013431;28;20963;-72
2022/03/23 10:07:00;;;;;;;17.60;12.87;;;11.80;35.60;;;10.93;32.25;99293.03;5013598;28;20959;-72
2022/03/23 10:10:07;;;;;;;18.33;14.10;;;11.90;35.20;;;10.79;32.58;99291.16;5015198;28;20516;-74
2022/03/23 10:13:49;;;;;;;14.00;12.40;;;12.00;35.00;;;11.08;32.69;99290.34;5013475;28;20439;-72
2022/03/23 10:17:24;;;;;;;15.13;13.07;;;12.10;35.10;;;11.16;32.30;99265.06;5010881;28;20442;-72
2022/03/23 10:19:53;;;;;;;15.07;12.30;;;12.30;35.10;;;11.26;32.33;99284.50;5014757;28;20534;-71
2022/03/23 10:22:20;;;;;;;14.73;12.67;;;12.30;35.00;;;11.48;31.03;99281.88;5013299;28;20448;-72
2022/03/23 10:24:49;;;;;;;15.73;11.57;;;12.50;34.90;;;11.57;31.41;99283.41;5015110;28;20461;-71
2022/03/23 10:27:17;;;;;;;17.63;11.50;;;12.50;34.80;;;11.70;31.77;99271.06;5015950;28;20432;-72
2022/03/23 10:29:52;;;;;;;17.30;12.23;;;12.70;35.10;;;11.75;31.54;99274.03;5030808;28;20933;-72
2022/03/23 10:32:21;;;;;;;14.27;12.47;;;12.70;34.70;;;11.90;31.76;99277.53;5014750;28;20445;-71
2022/03/23 10:34:51;;;;;;;12.97;11.70;;;12.90;34.80;;;11.88;30.91;99252.50;5013822;28;20470;-72
2022/03/23 10:37:30;;;;;;;13.93;12.43;;;13.00;34.40;;;11.97;30.49;99279.47;5015197;28;20912;-72